createdAt,value
2022-08-25T00:02:19.182Z,99.90
2022-08-25T00:04:46.324Z,99.90
2022-08-25T00:07:20.984Z,99.90
2022-08-25T00:09:48.192Z,99.90
2022-08-25T00:12:15.478Z,99.90
2022-08-25T00:14:43.650Z,99.90
2022-08-25T00:17:10.635Z,99.90
2022-08-25T00:19:39.078Z,99.90
2022-08-25T00:22:08.100Z,99.90
2022-08-25T00:24:35.586Z,99.90
2022-08-25T00:27:02.663Z,99.90
2022-08-25T00:29:30.774Z,99.90
2022-08-25T00:31:58.523Z,99.90
2022-08-25T00:34:30.519Z,99.90
2022-08-25T00:36:57.513Z,99.90
2022-08-25T00:39:25.394Z,99.90
2022-08-25T00:41:55.889Z,99.90
2022-08-25T00:44:23.760Z,99.90
2022-08-25T00:46:53.555Z,99.90
2022-08-25T00:49:35.651Z,99.90
2022-08-25T00:52:16.388Z,99.90
2022-08-25T00:55:07.658Z,99.90
2022-08-25T00:57:41.387Z,99.90
2022-08-25T01:00:15.552Z,99.90
2022-08-25T01:02:42.868Z,99.90
2022-08-25T01:05:09.869Z,99.90
2022-08-25T01:07:37.512Z,99.90
2022-08-25T01:10:07.982Z,99.90
2022-08-25T01:12:37.527Z,99.90
2022-08-25T01:15:07.269Z,99.90
2022-08-25T01:17:45.564Z,99.90
2022-08-25T01:20:14.026Z,99.90
2022-08-25T01:22:41.356Z,99.90
2022-08-25T01:25:24.709Z,99.90
2022-08-25T01:27:51.883Z,99.90
2022-08-25T01:30:19.280Z,99.90
2022-08-25T01:32:46.461Z,99.90
2022-08-25T01:35:14.331Z,99.90
2022-08-25T01:37:41.358Z,99.90
2022-08-25T01:40:09.201Z,99.90
2022-08-25T01:42:39.239Z,99.90
2022-08-25T01:45:06.756Z,99.90
2022-08-25T01:47:34.107Z,99.90
2022-08-25T01:50:01.054Z,99.90
2022-08-25T01:52:32.308Z,99.90
2022-08-25T01:55:02.335Z,99.90
2022-08-25T01:57:35.406Z,99.90
2022-08-25T02:00:04.636Z,99.90
2022-08-25T02:02:31.747Z,99.90
2022-08-25T02:05:00.975Z,99.90
2022-08-25T02:07:28.127Z,99.90
2022-08-25T02:09:56.072Z,99.90
2022-08-25T02:12:26.665Z,99.90
2022-08-25T02:14:53.616Z,99.90
2022-08-25T02:17:20.542Z,99.90
2022-08-25T02:19:47.683Z,99.90
2022-08-25T02:22:14.681Z,99.90
2022-08-25T02:24:41.636Z,99.90
2022-08-25T02:27:10.232Z,99.90
2022-08-25T02:29:37.194Z,99.90
2022-08-25T02:32:04.449Z,99.90
2022-08-25T02:34:32.421Z,99.90
2022-08-25T02:36:59.370Z,99.90
2022-08-25T02:39:26.337Z,99.90
2022-08-25T02:41:53.387Z,99.90
2022-08-25T02:44:20.334Z,99.90
2022-08-25T02:46:47.307Z,99.90
2022-08-25T02:49:14.219Z,99.90
2022-08-25T02:51:41.150Z,99.90
2022-08-25T02:54:08.115Z,99.90
2022-08-25T02:56:35.276Z,99.90
2022-08-25T02:59:03.191Z,99.90
2022-08-25T03:01:32.289Z,99.90
2022-08-25T03:04:02.069Z,99.90
2022-08-25T03:06:29.265Z,99.90
2022-08-25T03:08:56.467Z,99.90
2022-08-25T03:11:26.538Z,99.90
2022-08-25T03:13:54.267Z,99.90
2022-08-25T03:16:21.934Z,99.90
2022-08-25T03:18:49.334Z,99.90
2022-08-25T03:21:17.680Z,99.90
2022-08-25T03:23:45.474Z,99.90
2022-08-25T03:26:30.916Z,99.90
2022-08-25T03:28:58.352Z,99.90
2022-08-25T03:31:27.854Z,99.90
2022-08-25T03:33:55.524Z,99.90
2022-08-25T03:36:22.708Z,99.90
2022-08-25T03:38:49.951Z,99.90
2022-08-25T03:41:29.157Z,99.90
2022-08-25T03:43:57.029Z,99.90
2022-08-25T03:46:27.960Z,99.90
2022-08-25T03:48:55.482Z,99.90
2022-08-25T03:51:23.639Z,99.90
2022-08-25T03:53:51.010Z,99.90
2022-08-25T03:56:18.825Z,99.90
2022-08-25T03:58:46.319Z,99.90
2022-08-25T04:01:13.886Z,99.90
2022-08-25T04:03:43.252Z,99.90
2022-08-25T04:06:10.570Z,99.90
2022-08-25T04:08:38.544Z,99.90
2022-08-25T04:11:07.945Z,99.90
2022-08-25T04:13:34.955Z,99.90
2022-08-25T04:16:02.025Z,99.90
2022-08-25T04:18:31.196Z,99.90
2022-08-25T04:21:12.093Z,99.90
2022-08-25T04:23:41.120Z,99.90
2022-08-25T04:26:17.848Z,99.90
2022-08-25T04:28:45.300Z,99.90
2022-08-25T04:31:14.567Z,99.90
2022-08-25T04:33:42.019Z,99.90
2022-08-25T04:36:12.500Z,99.90
2022-08-25T04:38:41.463Z,99.90
2022-08-25T04:41:13.350Z,99.90
2022-08-25T04:43:41.724Z,99.90
2022-08-25T04:46:20.035Z,99.90
2022-08-25T04:48:48.616Z,99.90
2022-08-25T04:51:23.508Z,99.90
2022-08-25T04:53:51.049Z,99.90
2022-08-25T04:56:20.150Z,99.90
2022-08-25T04:58:47.630Z,99.90
2022-08-25T05:01:17.808Z,99.90
2022-08-25T05:03:52.593Z,99.90
2022-08-25T05:06:19.544Z,99.90
2022-08-25T05:08:46.490Z,99.90
2022-08-25T05:11:17.551Z,99.90
2022-08-25T05:13:51.142Z,99.90
2022-08-25T05:16:20.289Z,99.90
2022-08-25T05:18:47.699Z,99.90
2022-08-25T05:21:17.565Z,99.90
2022-08-25T05:23:47.229Z,99.90
2022-08-25T05:26:21.191Z,99.90
2022-08-25T05:28:54.206Z,99.90
2022-08-25T05:31:22.429Z,99.90
2022-08-25T05:33:50.157Z,99.90
2022-08-25T05:36:19.976Z,99.90
2022-08-25T05:38:47.839Z,99.90
2022-08-25T05:41:17.632Z,99.90
2022-08-25T05:43:46.379Z,99.90
2022-08-25T05:46:13.767Z,99.90
2022-08-25T05:48:40.787Z,99.90
2022-08-25T05:51:10.360Z,99.90
2022-08-25T05:53:39.314Z,99.90
2022-08-25T05:56:06.658Z,99.90
2022-08-25T05:58:34.019Z,99.90
2022-08-25T06:01:20.584Z,99.90
2022-08-25T06:03:47.904Z,99.90
2022-08-25T06:06:16.178Z,99.90
2022-08-25T06:08:46.549Z,99.90
2022-08-25T06:11:15.969Z,99.90
2022-08-25T06:13:43.064Z,99.90
2022-08-25T06:16:10.174Z,99.90
2022-08-25T06:18:37.491Z,99.90
2022-08-25T06:21:13.065Z,99.90
2022-08-25T06:23:40.778Z,99.90
2022-08-25T06:26:19.521Z,99.90
2022-08-25T06:28:49.343Z,99.90
2022-08-25T06:31:17.262Z,99.90
2022-08-25T06:33:44.620Z,99.90
2022-08-25T06:36:11.585Z,99.90
2022-08-25T06:38:38.484Z,99.90
2022-08-25T06:41:07.175Z,99.90
2022-08-25T06:43:35.402Z,99.90
2022-08-25T06:46:16.030Z,99.90
2022-08-25T06:48:44.426Z,99.90
2022-08-25T06:51:15.129Z,99.90
2022-08-25T06:53:44.240Z,99.90
2022-08-25T06:56:11.983Z,99.90
2022-08-25T06:58:39.862Z,99.90
2022-08-25T07:01:20.021Z,99.90
2022-08-25T07:03:48.449Z,99.90
2022-08-25T07:06:18.181Z,99.90
2022-08-25T07:08:47.036Z,99.90
2022-08-25T07:11:16.573Z,99.90
2022-08-25T07:13:45.471Z,99.90
2022-08-25T07:16:13.014Z,99.90
2022-08-25T07:18:39.959Z,99.90
2022-08-25T07:21:08.884Z,99.90
2022-08-25T07:23:36.839Z,99.90
2022-08-25T07:29:09.803Z,99.90
2022-08-25T07:31:37.447Z,99.90
2022-08-25T07:34:23.668Z,99.90
2022-08-25T07:36:52.751Z,99.90
2022-08-25T07:39:22.160Z,99.90
2022-08-25T07:41:51.946Z,99.90
2022-08-25T07:44:22.594Z,99.90
2022-08-25T07:46:51.718Z,99.60
2022-08-25T07:49:23.432Z,98.70
2022-08-25T07:52:04.559Z,98.10
2022-08-25T07:54:35.602Z,97.80
2022-08-25T07:57:09.099Z,97.10
2022-08-25T07:59:40.835Z,96.80
2022-08-25T08:02:18.494Z,96.50
2022-08-25T08:04:53.488Z,95.90
2022-08-25T08:07:25.757Z,94.90
2022-08-25T08:10:42.429Z,93.70
2022-08-25T08:13:00.092Z,93.00
2022-08-25T08:15:29.849Z,93.30
2022-08-25T08:18:00.795Z,92.70
2022-08-25T08:20:28.960Z,91.40
2022-08-25T08:22:59.115Z,90.90
2022-08-25T08:25:29.480Z,90.70
2022-08-25T08:27:56.827Z,89.60
2022-08-25T08:30:25.856Z,89.00
2022-08-25T08:33:09.115Z,85.60
2022-08-25T08:35:36.604Z,86.70
2022-08-25T08:38:07.870Z,84.40
2022-08-25T08:41:26.535Z,84.30
2022-08-25T08:44:20.817Z,81.90
2022-08-25T08:47:08.973Z,81.80
2022-08-25T08:50:16.632Z,80.60
2022-08-25T08:53:15.047Z,79.90
2022-08-25T08:55:52.444Z,79.20
2022-08-25T08:58:36.964Z,78.10
2022-08-25T09:01:04.187Z,80.70
2022-08-25T09:03:39.728Z,82.50
2022-08-25T09:06:27.037Z,80.70
2022-08-25T09:08:56.895Z,84.20
2022-08-25T09:11:31.262Z,85.90
2022-08-25T09:14:17.123Z,86.60
2022-08-25T09:16:56.047Z,87.10
2022-08-25T09:19:42.346Z,86.20
2022-08-25T09:22:35.413Z,87.40
2022-08-25T09:25:29.535Z,87.20
2022-08-25T09:28:36.900Z,85.90
2022-08-25T09:31:12.512Z,86.60
2022-08-25T09:33:39.517Z,86.90
2022-08-25T09:36:08.809Z,86.20
2022-08-25T09:38:36.179Z,85.00
2022-08-25T09:41:03.810Z,85.50
2022-08-25T09:43:42.005Z,85.30
2022-08-25T09:46:11.314Z,85.20
2022-08-25T09:48:56.102Z,86.50
2022-08-25T09:51:42.411Z,87.20
2022-08-25T09:54:13.126Z,86.20
2022-08-25T09:56:52.001Z,87.30
2022-08-25T09:59:34.695Z,87.50
2022-08-25T10:02:28.700Z,87.10
2022-08-25T10:04:56.739Z,85.60
2022-08-25T10:07:30.499Z,86.50
2022-08-25T10:10:02.103Z,86.60
2022-08-25T10:12:44.575Z,86.80
2022-08-25T10:15:29.457Z,85.00
2022-08-25T10:18:20.173Z,84.10
2022-08-25T10:21:04.611Z,84.40
2022-08-25T10:23:38.736Z,84.90
2022-08-25T10:26:23.200Z,85.90
2022-08-25T10:29:18.303Z,85.70
2022-08-25T10:31:56.654Z,86.90
2022-08-25T10:34:53.033Z,86.90
2022-08-25T10:37:32.904Z,88.10
2022-08-25T10:40:08.762Z,88.40
2022-08-25T10:42:57.606Z,88.00
2022-08-25T10:45:45.135Z,88.40
2022-08-25T10:48:23.893Z,88.20
2022-08-25T10:51:19.598Z,88.00
2022-08-25T10:54:10.998Z,88.10
2022-08-25T10:56:41.896Z,88.30
2022-08-25T10:59:42.973Z,88.80
2022-08-25T11:02:43.440Z,89.70
2022-08-25T11:05:33.839Z,90.70
2022-08-25T11:08:29.183Z,91.60
2022-08-25T11:11:12.481Z,91.90
2022-08-25T11:14:11.167Z,92.20
2022-08-25T11:17:10.805Z,92.10
2022-08-25T11:19:39.795Z,92.20
2022-08-25T11:22:42.802Z,92.60
2022-08-25T11:25:26.331Z,93.00
2022-08-25T11:28:41.952Z,92.80
2022-08-25T11:31:10.336Z,92.40
2022-08-25T11:33:38.831Z,91.90
2022-08-25T11:36:29.615Z,92.20
2022-08-25T11:39:16.780Z,91.90
2022-08-25T11:41:46.434Z,92.10
2022-08-25T11:44:32.557Z,92.00
2022-08-25T11:47:35.133Z,91.80
2022-08-25T11:50:23.723Z,91.80
2022-08-25T11:53:14.292Z,92.10
2022-08-25T11:55:51.735Z,92.60
2022-08-25T11:58:27.694Z,92.80
2022-08-25T12:01:02.437Z,92.20
2022-08-25T12:03:32.534Z,92.40
2022-08-25T12:06:18.348Z,92.40
2022-08-25T12:08:59.555Z,92.70
2022-08-25T12:11:54.894Z,92.90
2022-08-25T12:14:24.936Z,93.50
2022-08-25T12:17:00.420Z,93.90
2022-08-25T12:19:39.648Z,94.20
2022-08-25T12:22:10.419Z,94.40
2022-08-25T12:24:47.959Z,94.70
2022-08-25T12:27:40.475Z,95.00
2022-08-25T12:30:20.764Z,95.40
2022-08-25T12:33:15.706Z,95.90
2022-08-25T12:35:58.556Z,96.20
2022-08-25T12:38:42.578Z,96.20
2022-08-25T12:41:26.284Z,96.10
2022-08-25T12:44:28.520Z,95.70
2022-08-25T12:47:34.135Z,95.40
2022-08-25T12:50:26.479Z,95.10
2022-08-25T12:52:59.641Z,95.20
2022-08-25T12:55:27.572Z,95.00
2022-08-25T12:57:58.925Z,94.90
2022-08-25T13:00:38.006Z,94.70
2022-08-25T13:03:05.284Z,94.40
2022-08-25T13:06:08.176Z,94.10
2022-08-25T13:09:10.061Z,94.00
2022-08-25T13:12:01.790Z,93.50
2022-08-25T13:14:40.958Z,93.70
2022-08-25T13:17:29.760Z,93.60
2022-08-25T13:20:26.894Z,93.30
2022-08-25T13:23:00.723Z,93.40
2022-08-25T13:25:32.896Z,93.50
2022-08-25T13:28:10.867Z,93.50
2022-08-25T13:30:41.828Z,93.60
2022-08-25T13:33:22.857Z,93.60
2022-08-25T13:36:15.922Z,93.70
2022-08-25T13:38:46.949Z,93.70
2022-08-25T13:41:21.849Z,93.40
2022-08-25T13:44:01.133Z,94.00
2022-08-25T13:46:35.524Z,93.90
2022-08-25T13:49:08.764Z,94.10
2022-08-25T13:51:53.264Z,93.90
2022-08-25T13:54:41.260Z,93.90
2022-08-25T13:57:30.318Z,94.20
2022-08-25T14:00:02.818Z,94.30
2022-08-25T14:02:50.262Z,94.50
2022-08-25T14:05:32.451Z,95.00
2022-08-25T14:08:16.141Z,95.30
2022-08-25T14:11:39.402Z,95.80
2022-08-25T14:14:24.850Z,96.30
2022-08-25T14:17:36.496Z,96.40
2022-08-25T14:20:22.056Z,96.60
2022-08-25T14:22:56.037Z,96.50
2022-08-25T14:25:28.914Z,96.70
2022-08-25T14:28:06.627Z,96.60
2022-08-25T14:30:43.539Z,96.80
2022-08-25T14:33:17.044Z,97.00
2022-08-25T14:35:51.923Z,97.50
2022-08-25T14:38:22.038Z,97.70
2022-08-25T14:40:53.663Z,98.00
2022-08-25T14:43:31.472Z,98.00
2022-08-25T14:46:15.499Z,98.20
2022-08-25T14:48:46.777Z,98.40
2022-08-25T14:51:19.292Z,98.60
2022-08-25T14:53:47.858Z,98.60
2022-08-25T14:56:17.914Z,98.70
2022-08-25T14:58:51.030Z,98.70
2022-08-25T15:01:28.714Z,98.60
2022-08-25T15:04:13.287Z,98.90
2022-08-25T15:06:45.627Z,98.90
2022-08-25T15:09:16.903Z,98.50
2022-08-25T15:11:52.976Z,98.90
2022-08-25T15:14:33.359Z,98.60
2022-08-25T15:17:01.875Z,98.80
2022-08-25T15:19:29.407Z,99.00
2022-08-25T15:21:58.014Z,99.20
2022-08-25T15:24:29.801Z,99.50
2022-08-25T15:27:05.735Z,99.40
2022-08-25T15:29:41.173Z,99.40
2022-08-25T15:32:11.382Z,99.40
2022-08-25T15:34:41.972Z,99.20
2022-08-25T15:37:14.312Z,99.00
2022-08-25T15:39:45.633Z,98.90
2022-08-25T15:42:16.767Z,98.90
2022-08-25T15:44:53.152Z,99.00
2022-08-25T15:47:21.557Z,99.20
2022-08-25T15:49:59.928Z,99.20
2022-08-25T15:52:44.529Z,99.30
2022-08-25T15:55:14.192Z,99.10
2022-08-25T15:57:49.692Z,99.10
2022-08-25T16:00:23.266Z,99.40
2022-08-25T16:02:50.638Z,99.50
2022-08-25T16:05:22.486Z,99.70
2022-08-25T16:07:55.981Z,99.50
2022-08-25T16:10:26.805Z,99.50
2022-08-25T16:12:53.841Z,99.20
2022-08-25T16:15:28.881Z,99.40
2022-08-25T16:18:00.563Z,99.30
2022-08-25T16:20:34.311Z,99.30
2022-08-25T16:23:09.507Z,99.20
2022-08-25T16:25:46.533Z,99.00
2022-08-25T16:28:16.169Z,99.00
2022-08-25T16:30:52.677Z,99.20
2022-08-25T16:33:23.047Z,99.40
2022-08-25T16:35:53.175Z,99.20
2022-08-25T16:38:26.638Z,99.30
2022-08-25T16:40:54.967Z,99.30
2022-08-25T16:43:25.734Z,99.80
2022-08-25T16:46:08.665Z,99.90
2022-08-25T16:48:40.005Z,99.90
2022-08-25T16:51:14.905Z,99.70
2022-08-25T16:54:03.483Z,99.60
2022-08-25T16:56:35.191Z,99.70
2022-08-25T16:59:07.496Z,99.80
2022-08-25T17:01:38.335Z,99.70
2022-08-25T17:04:10.312Z,99.80
2022-08-25T17:06:42.479Z,99.90
2022-08-25T17:09:23.033Z,99.90
2022-08-25T17:11:56.761Z,99.90
2022-08-25T17:14:27.123Z,99.80
2022-08-25T17:16:57.168Z,99.70
2022-08-25T17:19:29.462Z,99.80
2022-08-25T17:21:58.794Z,99.70
2022-08-25T17:24:29.649Z,99.80
2022-08-25T17:27:04.647Z,99.90
2022-08-25T17:29:36.485Z,99.90
2022-08-25T17:32:05.269Z,99.90
2022-08-25T17:34:36.636Z,99.90
2022-08-25T17:37:06.954Z,99.90
2022-08-25T17:39:34.218Z,99.90
2022-08-25T17:42:03.851Z,99.90
2022-08-25T17:44:33.973Z,99.90
2022-08-25T17:47:07.583Z,99.90
2022-08-25T17:49:35.791Z,99.90
2022-08-25T17:52:07.398Z,99.90
2022-08-25T17:54:37.874Z,99.90
2022-08-25T17:57:11.347Z,99.90
2022-08-25T17:59:43.140Z,99.90
2022-08-25T18:02:16.960Z,99.90
2022-08-25T18:04:46.249Z,99.90
2022-08-25T18:07:38.149Z,99.90
2022-08-25T18:10:15.658Z,99.90
2022-08-25T18:12:45.318Z,99.90
2022-08-25T18:15:19.422Z,99.90
2022-08-25T18:17:46.856Z,99.90
2022-08-25T18:20:17.576Z,99.90
2022-08-25T18:22:44.663Z,99.90
2022-08-25T18:25:14.789Z,99.90
2022-08-25T18:27:44.822Z,99.90
2022-08-25T18:30:18.098Z,99.90
2022-08-25T18:32:48.915Z,99.90
2022-08-25T18:35:22.280Z,99.90
2022-08-25T18:38:17.122Z,99.90
2022-08-25T18:40:44.143Z,99.90
2022-08-25T18:43:14.248Z,99.90
2022-08-25T18:45:48.105Z,99.90
2022-08-25T18:48:26.565Z,99.90
2022-08-25T18:51:00.871Z,99.90
2022-08-25T18:53:37.312Z,99.90
2022-08-25T18:56:19.930Z,99.90
2022-08-25T18:58:47.626Z,99.90
2022-08-25T19:01:19.108Z,99.90
2022-08-25T19:03:47.511Z,99.90
2022-08-25T19:06:19.147Z,99.90
2022-08-25T19:08:49.694Z,99.90
2022-08-25T19:11:22.365Z,99.90
2022-08-25T19:13:52.778Z,99.90
2022-08-25T19:16:34.721Z,99.90
2022-08-25T19:19:06.391Z,99.90
2022-08-25T19:21:34.890Z,99.90
2022-08-25T19:24:04.544Z,99.90
2022-08-25T19:26:34.528Z,99.90
2022-08-25T19:29:03.700Z,99.90
2022-08-25T19:31:34.484Z,99.90
2022-08-25T19:34:04.903Z,99.90
2022-08-25T19:36:32.805Z,99.90
2022-08-25T19:39:01.559Z,99.90
2022-08-25T19:41:32.512Z,99.90
2022-08-25T19:44:04.747Z,99.90
2022-08-25T19:46:43.375Z,99.90
2022-08-25T19:49:25.764Z,99.90
2022-08-25T19:51:55.825Z,99.90
2022-08-25T19:54:30.948Z,99.90
2022-08-25T19:56:59.350Z,99.90
2022-08-25T19:59:40.813Z,99.90
2022-08-25T20:02:19.864Z,99.90
2022-08-25T20:04:50.328Z,99.90
2022-08-25T20:07:20.307Z,99.90
2022-08-25T20:09:48.316Z,99.90
2022-08-25T20:12:18.456Z,99.90
2022-08-25T20:14:50.138Z,99.90
2022-08-25T20:17:24.763Z,99.90
2022-08-25T20:20:09.235Z,99.90
2022-08-25T20:22:41.228Z,99.90
2022-08-25T20:25:20.721Z,99.90
2022-08-25T20:27:53.691Z,99.90
2022-08-25T20:30:25.165Z,99.90
2022-08-25T20:32:53.982Z,99.90
2022-08-25T20:35:27.440Z,99.90
2022-08-25T20:38:01.120Z,99.90
2022-08-25T20:40:31.133Z,99.90
2022-08-25T20:43:03.638Z,99.90
2022-08-25T20:45:30.710Z,99.90
2022-08-25T20:47:57.885Z,99.90
2022-08-25T20:50:25.224Z,99.90
2022-08-25T20:52:55.259Z,99.90
2022-08-25T20:55:23.443Z,99.90
2022-08-25T20:57:53.613Z,99.90
2022-08-25T21:00:26.680Z,99.90
2022-08-25T21:02:56.790Z,99.90
2022-08-25T21:05:24.041Z,99.90
2022-08-25T21:07:56.054Z,99.90
2022-08-25T21:10:23.957Z,99.90
2022-08-25T21:12:53.275Z,99.90
2022-08-25T21:15:21.632Z,99.90
2022-08-25T21:17:54.358Z,99.90
2022-08-25T21:20:23.877Z,99.90
2022-08-25T21:22:51.411Z,99.90
2022-08-25T21:25:21.542Z,99.90
2022-08-25T21:27:49.270Z,99.90
2022-08-25T21:30:20.461Z,99.90
2022-08-25T21:32:52.940Z,99.90
2022-08-25T21:35:23.961Z,99.90
2022-08-25T21:37:53.505Z,99.90
2022-08-25T21:40:22.681Z,99.90
2022-08-25T21:42:50.595Z,99.90
2022-08-25T21:45:23.875Z,99.90
2022-08-25T21:47:53.999Z,99.90
2022-08-25T21:50:21.289Z,99.90
2022-08-25T21:52:54.754Z,99.90
2022-08-25T21:55:41.934Z,99.90
2022-08-25T21:58:14.907Z,99.90
2022-08-25T22:00:45.028Z,99.90
2022-08-25T22:03:11.966Z,99.90
2022-08-25T22:05:39.453Z,99.90
2022-08-25T22:08:10.727Z,99.90
2022-08-25T22:10:44.916Z,99.90
2022-08-25T22:13:15.041Z,99.90
2022-08-25T22:15:41.989Z,99.90
2022-08-25T22:18:11.987Z,99.90
2022-08-25T22:20:42.167Z,99.90
2022-08-25T22:23:20.115Z,99.90
2022-08-25T22:25:50.778Z,99.90
2022-08-25T22:28:21.797Z,99.90
2022-08-25T22:30:53.679Z,99.90
2022-08-25T22:33:24.371Z,99.90
2022-08-25T22:35:59.830Z,99.90
2022-08-25T22:38:28.300Z,99.90
2022-08-25T22:41:02.776Z,99.90
2022-08-25T22:43:33.915Z,99.90
2022-08-25T22:46:05.221Z,99.90
2022-08-25T22:48:32.354Z,99.90
2022-08-25T22:51:13.842Z,99.90
2022-08-25T22:53:45.391Z,99.90
2022-08-25T22:56:29.834Z,99.90
2022-08-25T22:59:04.115Z,99.90
2022-08-25T23:01:32.175Z,99.90
2022-08-25T23:04:03.304Z,99.90
2022-08-25T23:06:30.699Z,99.90
2022-08-25T23:08:59.803Z,99.90
2022-08-25T23:11:29.012Z,99.90
2022-08-25T23:14:19.170Z,99.90
2022-08-25T23:16:52.320Z,99.90
2022-08-25T23:19:28.094Z,99.90
2022-08-25T23:22:10.412Z,99.90
2022-08-25T23:24:42.729Z,99.90
2022-08-25T23:27:14.382Z,99.90
2022-08-25T23:29:47.957Z,99.90
2022-08-25T23:32:18.928Z,99.90
2022-08-25T23:34:49.057Z,99.90
2022-08-25T23:37:19.785Z,99.90
2022-08-25T23:39:50.262Z,99.90
2022-08-25T23:42:19.909Z,99.90
2022-08-25T23:44:50.048Z,99.90
2022-08-25T23:47:20.221Z,99.90
2022-08-25T23:49:48.279Z,99.90
2022-08-25T23:52:38.214Z,99.90
2022-08-25T23:55:06.891Z,99.90
2022-08-25T23:57:37.010Z,99.90
